Time;durP1;ratioP1;P1;durP2;ratioP2;P2;SDS_P1;SDS_P2;PMS_P1;PMS_P2;Temp;Humidity;BMP_temperature;BMP_pressure;BME280_temperature;BME280_humidity;BME280_pressure;Samples;Min_cycle;Max_cycle;Signal;HPM_P1;HPM_P2
2021/07/09 00:02:13;;;;;;;13.40;7.72;;;;;;;17.31;72.96;100518.72;4994041;28;20050;-67
2021/07/09 00:04:42;;;;;;;12.73;8.65;;;;;;;17.30;73.04;100510.03;4994596;28;20084;-68
2021/07/09 00:07:10;;;;;;;15.57;8.20;;;;;;;17.30;73.13;100509.13;4994698;28;20122;-66
2021/07/09 00:09:36;;;;;;;16.70;8.30;;;;;;;17.32;73.20;100512.63;4995733;28;20434;-66
2021/07/09 00:12:04;;;;;;;12.32;8.40;;;;;;;17.31;72.97;100508.25;4994391;28;20078;-66
2021/07/09 00:14:36;;;;;;;13.60;8.73;;;;;;;17.31;72.93;100509.16;4994386;28;20030;-67
2021/07/09 00:17:05;;;;;;;10.77;8.95;;;;;;;17.31;73.14;100508.25;4994370;28;20081;-66
2021/07/09 00:19:34;;;;;;;12.27;8.65;;;;;;;17.32;73.00;100507.38;4993987;28;20041;-68
2021/07/09 00:22:02;;;;;;;12.63;8.70;;;;;;;17.32;73.13;100508.28;4995335;28;20406;-66
2021/07/09 00:24:31;;;;;;;16.67;9.00;;;;;;;17.31;73.02;100501.28;4995342;28;20498;-66
2021/07/09 00:27:03;;;;;;;12.95;8.93;;;;;;;17.30;73.12;100501.28;4977744;28;20452;-68
2021/07/09 00:29:31;;;;;;;12.98;9.48;;;;;;;17.31;73.16;100508.25;4995377;28;20501;-68
2021/07/09 00:32:03;;;;;;;14.50;10.40;;;;;;;17.31;73.03;100503.03;4994023;28;20037;-66
2021/07/09 00:34:30;;;;;;;12.10;8.95;;;;;;;17.30;73.05;100510.03;4995446;28;20030;-67
2021/07/09 00:37:01;;;;;;;14.70;9.20;;;;;;;17.31;72.86;100509.16;4994981;28;20039;-67
2021/07/09 00:39:29;;;;;;;11.73;8.73;;;;;;;17.30;73.01;100507.41;4995324;28;20038;-66
2021/07/09 00:41:57;;;;;;;12.43;9.25;;;;;;;17.30;73.21;100502.16;4994910;28;20406;-68
2021/07/09 00:44:28;;;;;;;13.82;9.70;;;;;;;17.28;72.89;100501.28;4994814;28;20113;-68
2021/07/09 00:46:56;;;;;;;12.15;9.60;;;;;;;17.28;72.86;100513.53;4993546;28;20068;-66
2021/07/09 00:49:24;;;;;;;14.00;8.73;;;;;;;17.27;73.21;100501.31;4995293;28;20077;-66
2021/07/09 00:51:50;;;;;;;16.60;10.45;;;;;;;17.27;73.19;100502.16;4993986;28;20468;-66
2021/07/09 00:54:18;;;;;;;13.02;9.57;;;;;;;17.26;73.22;100497.81;4993711;28;20077;-67
2021/07/09 00:56:47;;;;;;;14.95;9.45;;;;;;;17.26;73.27;100495.19;4994695;28;20485;-66
2021/07/09 00:59:23;;;;;;;16.60;9.70;;;;;;;17.26;73.29;100499.56;4994181;28;20037;-66
2021/07/09 01:01:50;;;;;;;15.32;10.43;;;;;;;17.26;73.20;100503.03;4992729;28;20141;-66
2021/07/09 01:04:18;;;;;;;13.27;10.32;;;;;;;17.26;73.27;100500.44;4994849;28;20030;-67
2021/07/09 01:06:46;;;;;;;11.30;8.95;;;;;;;17.25;73.16;100495.22;4994424;28;20120;-67
2021/07/09 01:09:14;;;;;;;15.77;9.73;;;;;;;17.25;73.21;100492.59;4994202;28;20069;-66
2021/07/09 01:11:40;;;;;;;17.55;9.10;;;;;;;17.25;73.22;100495.22;4994280;28;20073;-66
2021/07/09 01:14:13;;;;;;;13.15;9.18;;;;;;;17.23;73.21;100503.06;4994196;28;20066;-66
2021/07/09 01:16:41;;;;;;;13.57;10.35;;;;;;;17.23;73.26;100502.19;4994598;28;20500;-66
2021/07/09 01:19:13;;;;;;;16.05;10.10;;;;;;;17.22;73.27;100506.53;4994602;28;20042;-66
2021/07/09 01:21:40;;;;;;;14.43;9.77;;;;;;;17.22;73.24;100511.78;4994423;28;20039;-65
2021/07/09 01:24:08;;;;;;;12.32;9.23;;;;;;;17.20;73.04;100500.47;4993511;28;20041;-66
2021/07/09 01:26:38;;;;;;;17.67;10.13;;;;;;;17.20;73.36;100500.47;4993319;28;20712;-67
2021/07/09 01:29:07;;;;;;;14.13;10.32;;;;;;;17.20;73.48;100498.72;4994262;28;20038;-66
2021/07/09 01:31:33;;;;;;;19.05;10.45;;;;;;;17.18;73.37;100491.75;4994185;28;20042;-66
2021/07/09 01:34:04;;;;;;;14.75;9.90;;;;;;;17.17;73.27;100492.63;4994183;28;20537;-66
2021/07/09 01:36:32;;;;;;;16.55;9.48;;;;;;;17.17;73.54;100501.34;4994012;28;20034;-66
2021/07/09 01:39:00;;;;;;;15.38;10.25;;;;;;;17.16;73.34;100498.72;4994081;28;20033;-66
2021/07/09 01:41:28;;;;;;;15.23;10.32;;;;;;;17.16;73.44;100501.34;4994102;28;20038;-66
2021/07/09 01:44:02;;;;;;;21.42;10.50;;;;;;;17.14;73.40;100498.72;4994120;28;20034;-67
2021/07/09 01:46:35;;;;;;;15.82;11.13;;;;;;;17.12;73.12;100492.66;4994135;28;20129;-66
2021/07/09 01:49:01;;;;;;;12.80;9.30;;;;;;;17.13;73.41;100490.88;4993908;28;20044;-66
2021/07/09 01:51:26;;;;;;;14.60;10.07;;;;;;;17.14;73.43;100500.47;4976342;28;20138;-67
2021/07/09 01:53:58;;;;;;;18.02;11.35;;;;;;;17.10;73.50;100496.13;4977507;28;20037;-68
2021/07/09 01:56:25;;;;;;;15.38;10.65;;;;;;;17.10;73.43;100494.41;4992881;28;20045;-66
2021/07/09 01:58:56;;;;;;;20.83;11.85;;;;;;;17.10;73.88;100485.66;4993815;28;20449;-66
2021/07/09 02:01:24;;;;;;;13.52;10.20;;;;;;;17.09;73.38;100491.75;4992763;28;20586;-66
2021/07/09 02:03:50;;;;;;;17.95;10.57;;;;;;;17.08;73.33;100490.91;4993705;28;20133;-66
2021/07/09 02:06:23;;;;;;;19.10;10.50;;;;;;;17.07;73.61;100491.78;4992507;28;20550;-68
2021/07/09 02:08:51;;;;;;;13.48;10.60;;;;;;;17.05;73.00;100490.91;4992807;28;20027;-67
2021/07/09 02:11:20;;;;;;;16.60;11.45;;;;;;;17.04;73.35;100487.44;4992770;28;20066;-67
2021/07/09 02:13:46;;;;;;;13.63;10.52;;;;;;;17.05;73.34;100490.91;4993772;28;20494;-67
2021/07/09 02:16:14;;;;;;;14.45;10.70;;;;;;;17.04;73.45;100487.44;4993345;28;20038;-68
2021/07/09 02:18:45;;;;;;;16.83;11.20;;;;;;;17.03;73.45;100487.41;4993757;28;20109;-66
2021/07/09 02:21:14;;;;;;;15.55;10.57;;;;;;;17.03;73.62;100498.78;4994061;28;20397;-68
2021/07/09 02:23:46;;;;;;;14.70;11.35;;;;;;;17.03;73.50;100498.78;4993857;28;20121;-66
2021/07/09 02:26:15;;;;;;;13.85;11.57;;;;;;;17.03;73.60;100504.03;4993858;28;20042;-66
2021/07/09 02:28:43;;;;;;;12.30;10.98;;;;;;;17.03;73.41;100492.66;4993642;28;20035;-65
2021/07/09 02:31:14;;;;;;;17.33;12.30;;;;;;;17.03;73.33;100487.41;4992639;28;20125;-66
2021/07/09 02:33:45;;;;;;;16.33;10.73;;;;;;;17.01;73.54;100487.44;4994145;28;20081;-67
2021/07/09 02:36:15;;;;;;;12.93;11.23;;;;;;;17.01;73.54;100484.81;4996698;28;20070;-67
2021/07/09 02:38:41;;;;;;;16.20;11.40;;;;;;;16.99;73.62;100494.44;4995847;28;20084;-68
2021/07/09 02:41:10;;;;;;;16.02;11.02;;;;;;;17.01;73.37;100486.56;4996082;28;20038;-67
2021/07/09 02:43:36;;;;;;;16.77;11.07;;;;;;;16.99;73.65;100488.31;4996752;28;20038;-66
2021/07/09 02:46:04;;;;;;;14.50;10.18;;;;;;;16.99;73.58;100496.16;4997408;28;20046;-67
2021/07/09 02:48:35;;;;;;;14.77;11.73;;;;;;;16.98;73.45;100483.94;4996209;28;20117;-66
2021/07/09 02:51:03;;;;;;;12.90;11.05;;;;;;;16.98;73.44;100487.44;4996997;28;20162;-66
2021/07/09 02:53:31;;;;;;;19.33;12.25;;;;;;;16.98;73.48;100484.81;4996932;28;20038;-68
2021/07/09 02:56:00;;;;;;;19.17;11.75;;;;;;;16.97;73.43;100484.84;4997088;28;20042;-67
2021/07/09 02:58:29;;;;;;;17.15;12.05;;;;;;;16.97;73.48;100487.47;4995711;28;20390;-67
2021/07/09 03:01:01;;;;;;;18.55;11.25;;;;;;;16.98;73.65;100486.56;4997090;28;20420;-66
2021/07/09 03:03:31;;;;;;;16.23;12.55;;;;;;;16.96;73.56;100489.19;4996581;28;20042;-66
2021/07/09 03:05:59;;;;;;;16.30;11.85;;;;;;;16.95;73.83;100487.44;4995710;28;20070;-65
2021/07/09 03:08:27;;;;;;;18.90;11.63;;;;;;;16.96;73.60;100485.72;4996428;28;20037;-66
2021/07/09 03:10:58;;;;;;;15.18;12.43;;;;;;;16.96;73.72;100486.56;4996780;28;20117;-66
2021/07/09 03:13:24;;;;;;;19.65;13.13;;;;;;;16.96;73.57;100485.72;4996514;28;20034;-66
2021/07/09 03:15:51;;;;;;;15.55;11.85;;;;;;;16.95;73.67;100487.44;4996981;28;20142;-66
2021/07/09 03:18:20;;;;;;;20.25;12.95;;;;;;;16.95;73.61;100479.59;4997289;28;20113;-66
2021/07/09 03:20:45;;;;;;;14.75;11.95;;;;;;;16.95;73.66;100482.22;4996880;28;20085;-66
2021/07/09 03:23:13;;;;;;;16.65;12.40;;;;;;;16.96;73.55;100485.72;4995380;28;20038;-67
2021/07/09 03:25:42;;;;;;;14.98;12.30;;;;;;;16.96;73.68;100486.56;4996123;28;20038;-65
2021/07/09 03:28:08;;;;;;;18.70;12.55;;;;;;;16.95;73.68;100490.06;4995183;28;20125;-66
2021/07/09 03:30:39;;;;;;;17.70;12.73;;;;;;;16.95;74.02;100491.84;4994922;28;20116;-66
2021/07/09 03:33:09;;;;;;;23.40;12.48;;;;;;;16.93;73.85;100497.00;4995624;28;20410;-66
2021/07/09 03:35:37;;;;;;;16.17;12.65;;;;;;;16.92;73.72;100482.19;4996269;28;20046;-67
2021/07/09 03:38:08;;;;;;;24.90;13.68;;;;;;;16.93;73.63;100497.00;4995684;28;20034;-66
2021/07/09 03:40:36;;;;;;;15.27;12.43;;;;;;;16.92;74.05;100500.50;4995992;28;20042;-66
2021/07/09 03:43:08;;;;;;;19.80;13.68;;;;;;;16.90;73.71;100497.03;4996563;28;20030;-67
2021/07/09 03:45:34;;;;;;;16.55;13.18;;;;;;;16.90;73.67;100497.91;4996236;28;20038;-68
2021/07/09 03:47:59;;;;;;;31.33;14.88;;;;;;;16.90;73.67;100494.41;4994752;28;20031;-66
2021/07/09 03:50:25;;;;;;;20.50;14.70;;;;;;;16.89;73.80;100492.69;4995833;28;20124;-66
2021/07/09 03:52:54;;;;;;;23.95;15.10;;;;;;;16.89;73.72;100501.41;4994302;28;20038;-67
2021/07/09 03:55:22;;;;;;;23.60;15.27;;;;;;;16.88;73.87;100494.41;4995479;28;20478;-66
2021/07/09 03:57:52;;;;;;;20.60;16.15;;;;;;;16.88;73.72;100497.03;4995739;28;20031;-66
2021/07/09 04:00:21;;;;;;;19.70;15.63;;;;;;;16.88;73.71;100506.66;4994598;28;20058;-67
2021/07/09 04:02:53;;;;;;;17.63;14.80;;;;;;;16.88;73.79;100499.66;4995560;28;20130;-66
2021/07/09 04:05:21;;;;;;;20.40;16.80;;;;;;;16.88;73.74;100510.13;4995250;28;20038;-66
2021/07/09 04:07:51;;;;;;;30.30;17.55;;;;;;;16.88;73.74;100506.66;4995874;28;20446;-66
2021/07/09 04:10:20;;;;;;;20.85;16.50;;;;;;;16.89;73.88;100508.41;4996119;28;20046;-66
2021/07/09 04:12:51;;;;;;;22.23;18.08;;;;;;;16.88;73.64;100510.13;4995877;28;20441;-65
2021/07/09 04:15:22;;;;;;;23.98;17.48;;;;;;;16.88;73.79;100506.66;4995633;28;20030;-66
2021/07/09 04:17:48;;;;;;;25.20;17.60;;;;;;;16.87;73.97;100510.16;4995289;28;20038;-66
2021/07/09 04:20:16;;;;;;;24.15;17.63;;;;;;;16.86;74.01;100511.03;4995333;28;20041;-65
2021/07/09 04:22:44;;;;;;;29.08;19.60;;;;;;;16.85;74.04;100509.28;4995360;28;20030;-66
2021/07/09 04:25:12;;;;;;;22.73;18.85;;;;;;;16.85;73.94;100507.50;4995272;28;20038;-65
2021/07/09 04:27:42;;;;;;;24.50;18.45;;;;;;;16.84;73.84;100512.75;4994952;28;20034;-66
2021/07/09 04:30:11;;;;;;;30.30;19.73;;;;;;;16.84;74.04;100513.63;4995365;28;20038;-65
2021/07/09 04:32:42;;;;;;;24.80;19.92;;;;;;;16.83;73.64;100506.63;4995480;28;20077;-66
2021/07/09 04:35:09;;;;;;;25.63;18.33;;;;;;;16.83;73.89;100516.25;4994393;28;20141;-66
2021/07/09 04:37:38;;;;;;;24.17;19.20;;;;;;;16.83;73.79;100511.88;4995217;28;20049;-67
2021/07/09 04:40:07;;;;;;;26.95;19.30;;;;;;;16.83;73.94;100517.09;4995364;28;20505;-66
2021/07/09 04:42:35;;;;;;;24.88;18.88;;;;;;;16.83;73.80;100518.88;4994863;28;20127;-65
2021/07/09 04:45:09;;;;;;;24.83;18.38;;;;;;;16.82;74.01;100517.13;4995003;28;20037;-66
2021/07/09 04:47:37;;;;;;;24.17;18.60;;;;;;;16.83;73.74;100524.97;4995351;28;20038;-67
2021/07/09 04:50:04;;;;;;;25.33;18.20;;;;;;;16.82;74.03;100524.97;4994780;28;20042;-67
2021/07/09 04:52:38;;;;;;;26.88;18.52;;;;;;;16.81;73.98;100526.75;4993392;28;20034;-66
2021/07/09 04:55:07;;;;;;;24.15;17.63;;;;;;;16.82;73.92;100530.22;4993881;28;20026;-66
2021/07/09 04:57:37;;;;;;;22.88;17.88;;;;;;;16.82;73.97;100536.31;4992987;28;20038;-66
2021/07/09 05:00:04;;;;;;;25.17;17.67;;;;;;;16.82;73.94;100530.22;4993985;28;20039;-67
2021/07/09 05:02:41;;;;;;;26.35;18.58;;;;;;;16.82;73.90;100533.69;4993130;28;20058;-66
2021/07/09 05:05:12;;;;;;;22.90;18.63;;;;;;;16.81;74.16;100526.75;4993198;28;20417;-66
2021/07/09 05:07:38;;;;;;;20.85;17.50;;;;;;;16.81;74.04;100531.97;4994440;28;20125;-65
2021/07/09 05:10:04;;;;;;;22.27;17.15;;;;;;;16.82;74.02;100538.06;4994308;28;20466;-66
2021/07/09 05:12:35;;;;;;;26.52;17.40;;;;;;;16.80;74.02;100540.69;4994982;28;20062;-67
2021/07/09 05:15:03;;;;;;;26.13;17.15;;;;;;;16.81;74.12;100533.69;4994551;28;20038;-66
2021/07/09 05:17:28;;;;;;;25.02;17.65;;;;;;;16.80;74.00;100538.09;4992909;28;20084;-66
2021/07/09 05:19:56;;;;;;;23.73;16.27;;;;;;;16.81;73.90;100539.81;4994300;28;20116;-66
2021/07/09 05:22:22;;;;;;;18.45;16.25;;;;;;;16.81;73.95;100544.16;4994474;28;20038;-66
2021/07/09 05:24:54;;;;;;;22.50;17.38;;;;;;;16.81;74.04;100542.44;4992933;28;20061;-66
2021/07/09 05:27:23;;;;;;;21.30;17.10;;;;;;;16.79;73.91;100541.56;4994533;28;20034;-65
2021/07/09 05:29:49;;;;;;;21.85;15.80;;;;;;;16.80;74.05;100538.09;4994207;28;20113;-66
2021/07/09 05:32:24;;;;;;;22.95;16.20;;;;;;;16.79;74.03;100545.91;4993382;28;20553;-67
2021/07/09 05:34:50;;;;;;;23.33;16.02;;;;;;;16.78;74.12;100539.81;4994319;28;20042;-67
2021/07/09 05:37:17;;;;;;;23.95;16.70;;;;;;;16.80;73.90;100547.66;4994042;28;20034;-68
2021/07/09 05:39:46;;;;;;;19.92;15.52;;;;;;;16.79;74.03;100554.66;4994644;28;20030;-66
2021/07/09 05:42:16;;;;;;;22.60;16.05;;;;;;;16.79;74.15;100556.38;4992896;28;20085;-65
2021/07/09 05:44:43;;;;;;;23.00;16.85;;;;;;;16.79;74.07;100552.03;4994189;28;20072;-66
2021/07/09 05:47:12;;;;;;;18.23;15.85;;;;;;;16.79;74.03;100551.16;4976716;28;20034;-65
2021/07/09 05:49:38;;;;;;;20.10;16.15;;;;;;;16.78;74.17;100552.91;4993918;28;20044;-66
2021/07/09 05:52:06;;;;;;;21.45;16.63;;;;;;;16.77;74.21;100551.16;4993736;28;20096;-65
2021/07/09 05:54:35;;;;;;;22.35;15.35;;;;;;;16.78;74.14;100546.78;4994295;28;20030;-66
2021/07/09 05:57:01;;;;;;;27.92;16.25;;;;;;;16.77;74.13;100542.41;4994173;28;20045;-66
2021/07/09 05:59:27;;;;;;;26.75;16.38;;;;;;;16.77;74.31;100545.03;4992920;28;20030;-66
2021/07/09 06:01:53;;;;;;;21.85;15.98;;;;;;;16.77;74.15;100545.94;4992568;28;20153;-67
2021/07/09 06:04:20;;;;;;;19.10;14.95;;;;;;;16.77;74.30;100551.16;4993698;28;20402;-66
2021/07/09 06:06:47;;;;;;;19.63;14.88;;;;;;;16.79;74.33;100553.78;4993611;28;20385;-67
2021/07/09 06:09:14;;;;;;;24.48;15.93;;;;;;;16.79;74.35;100552.03;4995342;28;20038;-66
2021/07/09 06:11:40;;;;;;;20.35;15.30;;;;;;;16.79;74.35;100552.03;4997774;28;20038;-67
2021/07/09 06:14:06;;;;;;;18.85;14.98;;;;;;;16.79;74.32;100549.41;4996714;28;20045;-66
2021/07/09 06:16:32;;;;;;;19.55;15.77;;;;;;;16.80;74.21;100551.16;4998116;28;20042;-66
2021/07/09 06:18:58;;;;;;;17.90;14.40;;;;;;;16.80;74.46;100551.16;4998055;28;20034;-66
2021/07/09 06:21:24;;;;;;;19.38;14.38;;;;;;;16.80;74.21;100555.50;4996271;28;20030;-66
2021/07/09 06:23:52;;;;;;;18.95;15.18;;;;;;;16.81;74.77;100549.41;4997372;28;20035;-66
2021/07/09 06:26:19;;;;;;;18.38;15.13;;;;;;;16.81;74.25;100552.03;4997730;28;20058;-66
2021/07/09 06:28:45;;;;;;;20.52;14.75;;;;;;;16.81;74.23;100550.28;4997827;28;20035;-65
2021/07/09 06:31:15;;;;;;;19.13;15.20;;;;;;;16.81;74.44;100558.16;4996319;28;20505;-66
2021/07/09 06:33:41;;;;;;;20.05;14.48;;;;;;;16.80;74.50;100559.03;4996239;28;20486;-65
2021/07/09 06:36:06;;;;;;;21.75;13.95;;;;;;;16.80;74.41;100561.63;4997483;28;20038;-67
2021/07/09 06:38:31;;;;;;;20.27;14.82;;;;;;;16.80;74.45;100561.63;4997330;28;20117;-66
2021/07/09 06:40:57;;;;;;;16.65;14.77;;;;;;;16.80;74.14;100561.63;4996039;28;20129;-65
2021/07/09 06:43:26;;;;;;;20.83;14.75;;;;;;;16.80;74.42;100563.38;4997418;28;20485;-66
2021/07/09 06:45:52;;;;;;;17.80;14.07;;;;;;;16.81;74.35;100562.50;4996963;28;20041;-65
2021/07/09 06:48:18;;;;;;;17.73;14.48;;;;;;;16.82;74.43;100569.47;4996679;28;20041;-67
2021/07/09 06:50:44;;;;;;;19.52;14.98;;;;;;;16.81;74.42;100560.75;4997355;28;20031;-65
2021/07/09 06:53:15;;;;;;;23.60;14.13;;;;;;;16.82;74.52;100565.09;4997462;28;20062;-66
2021/07/09 06:55:41;;;;;;;19.70;14.18;;;;;;;16.83;74.40;100561.59;4996596;28;20034;-66
2021/07/09 06:58:06;;;;;;;21.58;13.25;;;;;;;16.84;74.52;100568.59;4996674;28;20042;-65
2021/07/09 07:00:32;;;;;;;19.27;14.07;;;;;;;16.85;74.52;100566.84;4995310;28;20062;-65
2021/07/09 07:02:57;;;;;;;23.92;15.65;;;;;;;16.88;74.40;100577.34;4996353;28;20133;-67
2021/07/09 07:05:23;;;;;;;18.85;13.20;;;;;;;16.88;74.47;100572.09;4995217;28;20046;-66
2021/07/09 07:07:51;;;;;;;15.63;13.57;;;;;;;16.88;74.93;100569.47;4995721;28;20039;-66
2021/07/09 07:10:17;;;;;;;21.73;13.60;;;;;;;16.88;74.61;100575.56;4979177;28;20046;-66
2021/07/09 07:12:45;;;;;;;21.65;14.75;;;;;;;16.88;74.59;100577.34;4995679;28;20046;-67
2021/07/09 07:15:13;;;;;;;17.25;13.63;;;;;;;16.88;74.38;100572.94;4996595;28;20509;-65
2021/07/09 07:17:39;;;;;;;18.98;13.63;;;;;;;16.87;74.50;100579.06;4996406;28;20042;-66
2021/07/09 07:20:06;;;;;;;19.15;13.27;;;;;;;16.88;74.54;100577.34;4995196;28;20497;-65
2021/07/09 07:22:31;;;;;;;17.15;13.63;;;;;;;16.90;74.75;100578.16;4996644;28;20077;-66
2021/07/09 07:24:57;;;;;;;21.02;14.77;;;;;;;16.91;74.48;100577.31;4995113;28;20073;-67
2021/07/09 07:27:29;;;;;;;21.48;14.40;;;;;;;16.91;74.46;100582.53;4996336;28;20026;-66
2021/07/09 07:29:58;;;;;;;19.08;13.80;;;;;;;16.91;74.50;100585.16;4996365;28;20125;-65
2021/07/09 07:32:26;;;;;;;19.67;13.48;;;;;;;16.90;74.45;100581.69;4996184;28;20030;-66
2021/07/09 07:34:55;;;;;;;18.92;13.95;;;;;;;16.91;74.53;100572.06;4995110;28;20214;-66
2021/07/09 07:37:25;;;;;;;21.02;13.30;;;;;;;16.90;74.51;100575.56;4996744;28;20442;-66
2021/07/09 07:39:55;;;;;;;17.23;13.20;;;;;;;16.90;74.50;100578.16;4996310;28;20105;-67
2021/07/09 07:42:21;;;;;;;16.38;12.90;;;;;;;16.89;74.39;100574.69;4996243;28;20113;-67
2021/07/09 07:44:52;;;;;;;19.77;12.30;;;;;;;16.88;74.41;100577.34;4995943;28;20185;-66
2021/07/09 07:47:21;;;;;;;18.40;12.80;;;;;;;16.87;74.39;100573.81;4996117;28;20080;-67
2021/07/09 07:49:49;;;;;;;19.52;12.70;;;;;;;16.87;74.43;100568.59;4994960;28;20038;-67
2021/07/09 07:52:18;;;;;;;18.55;12.82;;;;;;;16.89;74.43;100572.06;4996204;28;20030;-66
2021/07/09 07:54:43;;;;;;;18.58;12.80;;;;;;;16.88;74.46;100575.56;4994892;28;20035;-67
2021/07/09 07:57:09;;;;;;;19.77;13.05;;;;;;;16.89;74.53;100577.31;4995826;28;20041;-67
2021/07/09 07:59:34;;;;;;;19.27;14.05;;;;;;;16.89;74.43;100577.31;4996136;28;20470;-66
2021/07/09 08:02:02;;;;;;;25.52;14.45;;;;;;;16.88;74.37;100572.09;4995625;28;20093;-65
2021/07/09 08:04:28;;;;;;;21.98;14.60;;;;;;;16.88;74.42;100572.94;4994845;28;20425;-65
2021/07/09 08:06:56;;;;;;;17.00;13.20;;;;;;;16.88;74.23;100572.09;4995897;28;20080;-66
2021/07/09 08:09:21;;;;;;;19.92;13.35;;;;;;;16.88;74.22;100567.72;4995737;28;20066;-66
2021/07/09 08:11:51;;;;;;;18.40;13.30;;;;;;;16.90;74.45;100583.41;4994465;28;20065;-67
2021/07/09 08:14:19;;;;;;;17.88;13.27;;;;;;;16.91;74.25;100574.69;4996062;28;20034;-66
2021/07/09 08:16:48;;;;;;;19.10;13.35;;;;;;;16.94;74.33;100585.16;4994709;28;20030;-66
2021/07/09 08:19:16;;;;;;;18.00;11.85;;;;;;;16.96;74.24;100575.59;4994440;28;20030;-66
2021/07/09 08:21:46;;;;;;;16.10;12.13;;;;;;;16.98;74.28;100575.56;4995412;28;20061;-68
2021/07/09 08:24:19;;;;;;;16.08;13.75;;;;;;;16.98;74.20;100571.22;4995611;28;20038;-66
2021/07/09 08:26:45;;;;;;;20.00;12.82;;;;;;;17.00;74.10;100572.09;4993581;28;20089;-66
2021/07/09 08:29:11;;;;;;;20.42;13.35;;;;;;;17.01;74.30;100573.84;4995334;28;20517;-66
2021/07/09 08:31:38;;;;;;;15.65;12.13;;;;;;;17.00;74.16;100572.09;4994939;28;20042;-66
2021/07/09 08:34:04;;;;;;;18.23;12.43;;;;;;;17.02;74.17;100578.22;4993474;28;20501;-67
2021/07/09 08:36:30;;;;;;;20.70;12.57;;;;;;;17.02;73.96;100572.97;4993863;28;20045;-66
2021/07/09 08:38:55;;;;;;;19.30;12.38;;;;;;;17.04;74.09;100583.44;4994029;28;20030;-67
2021/07/09 08:41:22;;;;;;;16.77;11.90;;;;;;;17.04;74.15;100570.34;4994488;28;20077;-66
2021/07/09 08:43:48;;;;;;;13.75;12.23;;;;;;;17.06;74.14;100576.44;4995055;28;20509;-67
2021/07/09 08:46:14;;;;;;;18.05;12.82;;;;;;;17.06;74.13;100576.44;4994994;28;20045;-66
2021/07/09 08:48:41;;;;;;;15.73;12.73;;;;;;;17.07;74.04;100582.53;4993938;28;20125;-66
2021/07/09 08:51:07;;;;;;;15.45;12.73;;;;;;;17.06;74.32;100581.69;4993811;28;20048;-66
2021/07/09 08:53:33;;;;;;;19.00;13.88;;;;;;;17.06;74.13;100579.06;4994677;28;20031;-67
2021/07/09 08:55:59;;;;;;;17.80;14.55;;;;;;;17.07;74.40;100575.56;4993134;28;20044;-65
2021/07/09 08:58:25;;;;;;;19.88;15.45;;;;;;;17.08;74.18;100584.28;4994196;28;20088;-66
2021/07/09 09:00:50;;;;;;;18.77;14.45;;;;;;;17.08;74.12;100579.03;4977884;28;20066;-68
2021/07/09 09:03:24;;;;;;;20.10;14.05;;;;;;;17.08;74.07;100584.28;4993356;28;20057;-67
2021/07/09 09:05:50;;;;;;;17.80;14.70;;;;;;;17.09;74.13;100583.41;4994584;28;20038;-67
2021/07/09 09:08:18;;;;;;;20.45;15.65;;;;;;;17.09;73.98;100580.78;4994425;28;20125;-66
2021/07/09 09:10:45;;;;;;;17.08;15.25;;;;;;;17.09;74.26;100580.78;4977201;28;20196;-67
2021/07/09 09:13:23;;;;;;;21.77;14.27;;;;;;;17.09;74.02;100576.44;4994593;28;20035;-67
2021/07/09 09:16:13;;;;;;;19.50;15.35;;;;;;;17.10;74.06;100586.03;4993435;28;20501;-67
2021/07/09 09:18:55;;;;;;;22.80;16.33;;;;;;;17.12;74.09;100588.66;4988491;28;20413;-67
2021/07/09 09:21:25;;;;;;;22.30;18.00;;;;;;;17.12;74.14;100584.31;4995195;28;20061;-67
2021/07/09 09:23:53;;;;;;;26.30;18.60;;;;;;;17.15;74.31;100583.41;4994219;28;20402;-68
2021/07/09 09:26:38;;;;;;;25.58;17.65;;;;;;;17.15;74.13;100578.16;4993023;28;20030;-66
2021/07/09 09:29:04;;;;;;;19.40;15.05;;;;;;;17.17;74.21;100577.28;4994392;28;20092;-68
2021/07/09 09:31:37;;;;;;;19.75;16.20;;;;;;;17.18;73.99;100567.69;4994343;28;20383;-67
2021/07/09 09:34:05;;;;;;;24.02;17.52;;;;;;;17.20;73.99;100565.94;4993485;28;20066;-67
2021/07/09 09:36:31;;;;;;;23.17;16.95;;;;;;;17.23;73.87;100568.53;4994499;28;20494;-67
2021/07/09 09:39:02;;;;;;;26.00;18.50;;;;;;;17.25;74.01;100563.31;4993040;28;20509;-67
2021/07/09 09:41:30;;;;;;;20.08;16.58;;;;;;;17.27;74.15;100567.66;4994133;28;20121;-68
2021/07/09 09:44:13;;;;;;;23.83;17.90;;;;;;;17.29;73.91;100568.53;4992556;28;20391;-66
2021/07/09 09:46:39;;;;;;;22.65;18.27;;;;;;;17.31;74.04;100564.16;4994198;28;20031;-67
2021/07/09 09:49:05;;;;;;;24.23;18.17;;;;;;;17.32;74.04;100557.16;4992997;28;20045;-68
2021/07/09 09:51:39;;;;;;;30.65;20.83;;;;;;;17.34;74.11;100555.41;4992963;28;20181;-69
2021/07/09 09:54:08;;;;;;;25.38;19.25;;;;;;;17.35;73.88;100550.19;4994011;28;20096;-67
2021/07/09 09:56:45;;;;;;;25.88;19.65;;;;;;;17.38;74.14;100551.00;4992832;28;20030;-68
2021/07/09 09:59:22;;;;;;;26.55;20.35;;;;;;;17.39;74.02;100552.75;4993185;28;20042;-68
2021/07/09 10:01:50;;;;;;;25.73;19.27;;;;;;;17.42;74.10;100547.50;4993877;28;20050;-65
2021/07/09 10:04:17;;;;;;;27.42;18.35;;;;;;;17.45;73.93;100544.88;4993924;28;20035;-67
2021/07/09 10:06:46;;;;;;;22.40;18.95;;;;;;;17.48;73.79;100539.63;4992882;28;20118;-68
2021/07/09 10:09:17;;;;;;;28.88;18.52;;;;;;;17.49;73.97;100534.38;4993659;28;20501;-66
2021/07/09 10:11:43;;;;;;;21.10;17.88;;;;;;;17.53;73.86;100535.22;4994287;28;20031;-66
2021/07/09 10:14:29;;;;;;;20.63;17.00;;;;;;;17.56;73.64;100534.34;4993845;28;20050;-65
2021/07/09 10:17:04;;;;;;;24.38;17.98;;;;;;;17.57;73.69;100534.34;4993864;28;20045;-67
2021/07/09 10:19:38;;;;;;;21.90;15.93;;;;;;;17.59;73.78;100536.97;4993658;28;20031;-67
2021/07/09 10:22:07;;;;;;;21.67;16.90;;;;;;;17.59;73.71;100529.97;4993719;28;20034;-68
2021/07/09 10:24:34;;;;;;;20.80;15.38;;;;;;;17.62;73.44;100536.94;4993287;28;20046;-68
2021/07/09 10:27:01;;;;;;;21.38;16.65;;;;;;;17.64;73.41;100533.44;4993621;28;20026;-67
2021/07/09 10:29:32;;;;;;;22.48;15.65;;;;;;;17.65;73.63;100529.94;4992767;28;20042;-67
2021/07/09 10:31:57;;;;;;;17.70;14.05;;;;;;;17.67;73.43;100523.81;4993643;28;20035;-66
2021/07/09 10:34:23;;;;;;;19.10;15.57;;;;;;;17.68;73.40;100534.28;4992518;28;20034;-65
2021/07/09 10:36:58;;;;;;;20.40;14.80;;;;;;;17.69;73.48;100528.16;4992495;28;20065;-68
2021/07/09 10:39:41;;;;;;;20.08;15.20;;;;;;;17.70;73.42;100521.16;4992397;28;20041;-67
2021/07/09 10:42:28;;;;;;;15.68;12.98;;;;;;;17.70;73.57;100524.66;4992732;28;20053;-66
2021/07/09 10:44:58;;;;;;;19.77;14.23;;;;;;;17.70;73.22;100522.03;4992975;28;20042;-67
2021/07/09 10:47:34;;;;;;;19.00;13.23;;;;;;;17.72;73.39;100516.78;4993846;28;20129;-65
2021/07/09 10:50:00;;;;;;;15.30;12.00;;;;;;;17.74;73.38;100520.28;4993723;28;20038;-67
2021/07/09 10:52:43;;;;;;;14.10;11.77;;;;;;;17.76;73.33;100521.13;4993223;28;20035;-67
2021/07/09 10:55:24;;;;;;;14.43;10.90;;;;;;;17.77;73.31;100528.13;4993290;28;20120;-66
2021/07/09 10:58:17;;;;;;;17.73;12.00;;;;;;;17.79;73.23;100523.75;4996060;28;20034;-67
2021/07/09 11:00:59;;;;;;;16.33;11.80;;;;;;;17.79;73.24;100514.13;4995869;28;20426;-65
2021/07/09 11:03:35;;;;;;;15.70;10.77;;;;;;;17.81;73.21;100522.84;4997477;28;20046;-67
2021/07/09 11:06:02;;;;;;;12.23;10.25;;;;;;;17.81;73.16;100514.13;4997141;28;20486;-65
2021/07/09 11:08:33;;;;;;;11.88;10.30;;;;;;;17.82;72.98;100510.63;4996795;28;20053;-66
2021/07/09 11:11:03;;;;;;;13.60;10.75;;;;;;;17.83;73.06;100514.97;4995506;28;20129;-65
2021/07/09 11:13:40;;;;;;;15.05;10.13;;;;;;;17.82;73.22;100515.88;4996301;28;20041;-67
2021/07/09 11:16:24;;;;;;;12.90;9.77;;;;;;;17.81;73.08;100514.13;4995798;28;20390;-68
2021/07/09 11:19:07;;;;;;;14.57;10.27;;;;;;;17.82;73.04;100510.63;4995490;28;20486;-66